createdAt,value
2018-05-25T00:01:01.772Z,4.27
2018-05-25T00:03:12.854Z,4.33
2018-05-25T00:05:24.102Z,5.03
2018-05-25T00:07:35.244Z,4.30
2018-05-25T00:09:46.310Z,5.10
2018-05-25T00:11:57.417Z,5.17
2018-05-25T00:14:08.519Z,5.20
2018-05-25T00:16:19.598Z,4.93
2018-05-25T00:18:30.686Z,4.20
2018-05-25T00:20:41.784Z,5.00
2018-05-25T00:22:53.018Z,5.23
2018-05-25T00:25:04.105Z,4.17
2018-05-25T00:27:15.241Z,4.57
2018-05-25T00:29:26.338Z,4.70
2018-05-25T00:31:37.411Z,4.50
2018-05-25T00:33:48.546Z,4.37
2018-05-25T00:35:59.622Z,3.67
2018-05-25T00:38:10.710Z,3.97
2018-05-25T00:40:21.842Z,4.30
2018-05-25T00:42:33.025Z,4.13
2018-05-25T00:44:44.144Z,3.50
2018-05-25T00:46:55.355Z,3.47
2018-05-25T00:49:06.475Z,3.90
2018-05-25T00:51:17.694Z,3.80
2018-05-25T00:53:28.746Z,3.33
2018-05-25T00:55:39.830Z,3.53
2018-05-25T00:57:50.882Z,3.43
2018-05-25T01:00:02.012Z,3.90
2018-05-25T01:02:13.146Z,3.67
2018-05-25T01:04:24.386Z,3.60
2018-05-25T01:06:35.494Z,3.33
2018-05-25T01:08:46.602Z,3.43
2018-05-25T01:10:57.719Z,3.60
2018-05-25T01:13:08.807Z,4.27
2018-05-25T01:15:19.878Z,4.17
2018-05-25T01:17:30.931Z,4.33
2018-05-25T01:19:42.091Z,4.37
2018-05-25T01:21:53.218Z,4.40
2018-05-25T01:24:04.291Z,4.20
2018-05-25T01:26:15.493Z,4.30
2018-05-25T01:28:26.554Z,4.53
2018-05-25T01:30:37.687Z,4.60
2018-05-25T01:32:48.734Z,4.10
2018-05-25T01:34:59.875Z,4.03
2018-05-25T01:37:10.982Z,3.50
2018-05-25T01:39:22.155Z,4.20
2018-05-25T01:41:33.283Z,3.80
2018-05-25T01:43:44.378Z,3.67
2018-05-25T01:45:55.543Z,4.17
2018-05-25T01:48:06.618Z,4.27
2018-05-25T01:50:17.666Z,4.60
2018-05-25T01:52:28.747Z,3.27
2018-05-25T01:54:39.847Z,4.50
2018-05-25T01:56:50.918Z,3.77
2018-05-25T01:59:02.058Z,3.97
2018-05-25T02:01:13.114Z,3.80
2018-05-25T02:03:24.187Z,4.20
2018-05-25T02:05:35.429Z,4.07
2018-05-25T02:07:46.508Z,4.50
2018-05-25T02:09:57.622Z,4.50
2018-05-25T02:12:08.711Z,4.43
2018-05-25T02:14:19.910Z,4.23
2018-05-25T02:16:31.031Z,3.93
2018-05-25T02:18:42.191Z,3.33
2018-05-25T02:20:53.258Z,4.47
2018-05-25T02:23:04.322Z,4.20
2018-05-25T02:25:15.402Z,4.17
2018-05-25T02:27:26.494Z,3.60
2018-05-25T02:29:37.564Z,3.83
2018-05-25T02:31:48.627Z,4.37
2018-05-25T02:33:59.794Z,3.20
2018-05-25T02:36:10.855Z,3.43
2018-05-25T02:38:22.034Z,3.53
2018-05-25T02:40:33.099Z,3.37
2018-05-25T02:42:44.231Z,3.17
2018-05-25T02:44:55.353Z,3.60
2018-05-25T02:47:06.399Z,4.37
2018-05-25T02:49:17.581Z,4.37
2018-05-25T02:51:28.638Z,5.13
2018-05-25T02:53:39.836Z,4.37
2018-05-25T02:55:50.926Z,5.87
2018-05-25T02:58:02.043Z,5.47
2018-05-25T03:00:13.082Z,4.70
2018-05-25T03:02:24.149Z,4.53
2018-05-25T03:04:35.239Z,5.00
2018-05-25T03:06:46.333Z,5.57
2018-05-25T03:08:57.457Z,3.97
2018-05-25T03:11:08.597Z,5.27
2018-05-25T03:13:19.758Z,5.17
2018-05-25T03:15:30.845Z,5.40
2018-05-25T03:17:41.938Z,5.10
2018-05-25T03:19:53.008Z,5.13
2018-05-25T03:22:04.092Z,5.50
2018-05-25T03:24:15.158Z,4.40
2018-05-25T03:26:26.302Z,3.80
2018-05-25T03:28:37.386Z,3.73
2018-05-25T03:30:48.562Z,4.00
2018-05-25T03:32:59.701Z,3.73
2018-05-25T03:35:10.735Z,3.70
2018-05-25T03:37:21.831Z,3.60
2018-05-25T03:39:32.882Z,3.30
2018-05-25T03:41:43.967Z,3.30
2018-05-25T03:43:55.049Z,3.50
2018-05-25T03:46:06.352Z,2.93
2018-05-25T03:48:17.394Z,3.17
2018-05-25T03:50:28.515Z,3.10
2018-05-25T03:52:39.603Z,3.50
2018-05-25T03:54:50.693Z,3.87
2018-05-25T03:57:01.827Z,3.27
2018-05-25T03:59:25.196Z,3.17
2018-05-25T04:01:48.758Z,3.40
2018-05-25T04:04:00.851Z,3.80
2018-05-25T04:06:11.946Z,3.43
2018-05-25T04:08:23.047Z,3.57
2018-05-25T04:10:34.430Z,3.43
2018-05-25T04:12:45.572Z,3.03
2018-05-25T04:14:56.679Z,4.07
2018-05-25T04:17:07.850Z,3.70
2018-05-25T04:19:18.934Z,3.90
2018-05-25T04:21:30.199Z,3.40
2018-05-25T04:23:41.395Z,3.53
2018-05-25T04:25:52.462Z,3.57
2018-05-25T04:28:03.566Z,3.37
2018-05-25T04:30:14.650Z,3.80
2018-05-25T04:32:25.756Z,3.20
2018-05-25T04:34:36.850Z,3.50
2018-05-25T04:36:47.999Z,3.60
2018-05-25T04:38:59.096Z,3.90
2018-05-25T04:41:10.207Z,4.30
2018-05-25T04:43:21.263Z,3.73
2018-05-25T04:45:32.350Z,3.27
2018-05-25T04:47:43.458Z,4.40
2018-05-25T04:49:54.554Z,2.57
2018-05-25T04:52:05.666Z,4.10
2018-05-25T04:54:16.855Z,3.53
2018-05-25T04:56:28.010Z,4.40
2018-05-25T04:58:39.059Z,4.30
2018-05-25T05:00:50.154Z,3.70
2018-05-25T05:03:01.290Z,3.93
2018-05-25T05:05:12.377Z,4.00
2018-05-25T05:07:23.431Z,3.93
2018-05-25T05:09:34.534Z,3.93
2018-05-25T05:11:45.698Z,3.50
2018-05-25T05:13:56.945Z,3.93
2018-05-25T05:16:08.147Z,4.57
2018-05-25T05:18:19.221Z,4.20
2018-05-25T05:20:30.498Z,3.70
2018-05-25T05:22:41.550Z,4.30
2018-05-25T05:24:52.618Z,3.47
2018-05-25T05:27:03.678Z,4.80
2018-05-25T05:29:14.741Z,4.57
2018-05-25T05:31:25.871Z,4.43
2018-05-25T05:33:37.148Z,3.57
2018-05-25T05:35:48.313Z,4.00
2018-05-25T05:37:59.330Z,3.73
2018-05-25T05:40:10.466Z,3.87
2018-05-25T05:42:21.555Z,4.10
2018-05-25T05:44:32.608Z,3.90
2018-05-25T05:46:43.654Z,3.13
2018-05-25T05:48:54.782Z,3.73
2018-05-25T05:51:05.877Z,3.40
2018-05-25T05:53:17.110Z,4.07
2018-05-25T05:55:28.267Z,4.10
2018-05-25T05:57:39.335Z,3.73
2018-05-25T05:59:50.409Z,3.10
2018-05-25T06:02:01.502Z,3.40
2018-05-25T06:04:12.644Z,3.50
2018-05-25T06:06:23.706Z,3.00
2018-05-25T06:08:34.885Z,3.47
2018-05-25T06:10:46.061Z,3.63
2018-05-25T06:12:57.221Z,3.50
2018-05-25T06:15:08.406Z,3.00
2018-05-25T06:17:19.526Z,2.90
2018-05-25T06:19:30.742Z,3.30
2018-05-25T06:21:41.830Z,3.57
2018-05-25T06:23:52.927Z,3.70
2018-05-25T06:26:04.019Z,3.60
2018-05-25T06:28:15.078Z,3.23
2018-05-25T06:30:26.354Z,3.80
2018-05-25T06:32:37.417Z,3.60
2018-05-25T06:34:48.764Z,3.30
2018-05-25T06:36:59.825Z,3.50
2018-05-25T06:39:10.945Z,2.90
2018-05-25T06:41:22.024Z,2.87
2018-05-25T06:43:33.095Z,3.10
2018-05-25T06:45:44.218Z,3.00
2018-05-25T06:47:55.286Z,3.40
2018-05-25T06:50:06.515Z,2.63
2018-05-25T06:52:17.634Z,3.07
2018-05-25T06:54:28.761Z,3.20
2018-05-25T06:56:39.815Z,2.63
2018-05-25T06:58:50.930Z,3.30
2018-05-25T07:01:02.002Z,3.10
2018-05-25T07:03:13.111Z,3.00
2018-05-25T07:05:24.307Z,3.20
2018-05-25T07:07:35.374Z,3.50
2018-05-25T07:09:46.531Z,3.33
2018-05-25T07:11:57.606Z,2.93
2018-05-25T07:14:08.930Z,4.03
2018-05-25T07:16:20.090Z,3.70
2018-05-25T07:18:31.154Z,3.93
2018-05-25T07:20:42.224Z,3.90
2018-05-25T07:22:53.282Z,4.30
2018-05-25T07:25:04.390Z,3.43
2018-05-25T07:27:15.470Z,3.90
2018-05-25T07:29:26.707Z,4.40
2018-05-25T07:31:37.772Z,4.60
2018-05-25T07:33:48.841Z,4.20
2018-05-25T07:35:59.942Z,3.87
2018-05-25T07:38:10.996Z,4.23
2018-05-25T07:40:22.118Z,4.63
2018-05-25T07:42:33.186Z,4.63
2018-05-25T07:44:44.310Z,4.63
2018-05-25T07:46:55.376Z,4.60
2018-05-25T07:49:06.562Z,5.57
2018-05-25T07:51:17.642Z,4.53
2018-05-25T07:53:28.762Z,4.83
2018-05-25T07:55:39.858Z,5.30
2018-05-25T07:57:50.932Z,5.60
2018-05-25T08:00:02.052Z,3.63
2018-05-25T08:02:13.124Z,6.23
2018-05-25T08:04:24.182Z,5.43
2018-05-25T08:06:35.343Z,4.43
2018-05-25T08:08:46.386Z,5.60
2018-05-25T08:10:57.494Z,5.23
2018-05-25T08:13:08.542Z,4.87
2018-05-25T08:15:19.591Z,4.60
2018-05-25T08:17:30.710Z,5.40
2018-05-25T08:19:41.801Z,5.90
2018-05-25T08:21:52.986Z,5.67
2018-05-25T08:24:04.003Z,6.10
2018-05-25T08:26:15.234Z,5.30
2018-05-25T08:28:26.367Z,5.20
2018-05-25T08:30:37.455Z,5.23
2018-05-25T08:32:48.550Z,4.73
2018-05-25T08:35:01.621Z,4.90
2018-05-25T08:37:12.717Z,5.47
2018-05-25T08:39:23.778Z,5.00
2018-05-25T08:41:34.931Z,5.30
2018-05-25T08:43:46.027Z,4.33
2018-05-25T08:45:57.106Z,5.23
2018-05-25T08:48:08.238Z,5.30
2018-05-25T08:50:19.306Z,5.30
2018-05-25T08:52:30.438Z,4.37
2018-05-25T08:54:41.536Z,5.00
2018-05-25T08:56:52.654Z,5.50
2018-05-25T08:59:03.770Z,6.10
2018-05-25T09:01:14.933Z,5.90
2018-05-25T09:03:26.010Z,5.10
2018-05-25T09:05:37.150Z,5.77
2018-05-25T09:07:48.203Z,6.17
2018-05-25T09:09:59.297Z,4.43
2018-05-25T09:12:10.405Z,3.53
2018-05-25T09:14:21.531Z,4.40
2018-05-25T09:16:32.799Z,4.50
2018-05-25T09:18:43.915Z,4.30
2018-05-25T09:20:55.126Z,4.40
2018-05-25T09:23:06.199Z,5.00
2018-05-25T09:25:17.350Z,3.90
2018-05-25T09:27:28.405Z,4.00
2018-05-25T09:29:39.476Z,4.23
2018-05-25T09:31:50.621Z,4.07
2018-05-25T09:34:01.695Z,3.70
2018-05-25T09:36:12.849Z,3.60
2018-05-25T09:38:23.967Z,3.90
2018-05-25T09:40:35.126Z,3.63
2018-05-25T09:42:46.193Z,3.70
2018-05-25T09:44:57.287Z,3.77
2018-05-25T09:47:08.358Z,3.90
2018-05-25T09:49:19.444Z,3.93
2018-05-25T09:51:30.527Z,3.53
2018-05-25T09:53:41.655Z,3.60
2018-05-25T09:55:52.803Z,3.80
2018-05-25T09:58:03.963Z,3.23
2018-05-25T10:00:15.111Z,3.80
2018-05-25T10:02:26.245Z,4.03
2018-05-25T10:04:37.334Z,3.43
2018-05-25T10:06:48.419Z,4.27
2018-05-25T10:08:59.527Z,4.20
2018-05-25T10:11:10.618Z,4.13
2018-05-25T10:13:21.814Z,4.20
2018-05-25T10:15:33.003Z,3.70
2018-05-25T10:17:44.210Z,3.73
2018-05-25T10:19:55.351Z,4.50
2018-05-25T10:22:06.438Z,3.67
2018-05-25T10:24:17.544Z,3.87
2018-05-25T10:26:28.654Z,3.93
2018-05-25T10:28:39.743Z,3.13
2018-05-25T10:30:50.982Z,2.90
2018-05-25T10:33:02.070Z,4.03
2018-05-25T10:35:13.253Z,3.53
2018-05-25T10:37:24.359Z,3.80
2018-05-25T10:39:35.435Z,3.90
2018-05-25T10:41:46.575Z,3.43
2018-05-25T10:43:57.682Z,3.63
2018-05-25T10:46:08.814Z,3.20
2018-05-25T10:48:19.927Z,3.30
2018-05-25T10:50:31.048Z,2.57
2018-05-25T10:52:42.163Z,3.13
2018-05-25T10:54:53.439Z,2.83
2018-05-25T10:57:04.555Z,3.03
2018-05-25T10:59:15.689Z,2.80
2018-05-25T11:01:26.754Z,2.87
2018-05-25T11:03:37.890Z,2.60
2018-05-25T11:05:48.955Z,3.10
2018-05-25T11:08:00.066Z,2.67
2018-05-25T11:10:11.185Z,2.33
2018-05-25T11:12:22.343Z,2.60
2018-05-25T11:14:33.488Z,2.60
2018-05-25T11:16:44.626Z,2.50
2018-05-25T11:18:55.787Z,2.60
2018-05-25T11:21:06.910Z,2.80
2018-05-25T11:23:18.002Z,2.80
2018-05-25T11:25:29.134Z,3.00
2018-05-25T11:27:40.239Z,3.30
2018-05-25T11:29:51.355Z,3.20
2018-05-25T11:32:02.514Z,3.37
2018-05-25T11:34:13.656Z,3.50
2018-05-25T11:36:24.727Z,3.90
2018-05-25T11:38:35.933Z,3.43
2018-05-25T11:40:46.988Z,3.60
2018-05-25T11:42:58.059Z,3.73
2018-05-25T11:45:09.157Z,3.00
2018-05-25T11:47:20.264Z,2.70
2018-05-25T11:49:31.374Z,3.10
2018-05-25T11:51:42.448Z,2.50
2018-05-25T11:53:53.675Z,2.27
2018-05-25T11:56:04.774Z,2.77
2018-05-25T11:58:15.913Z,3.00
2018-05-25T12:00:27.004Z,2.23
2018-05-25T12:02:38.157Z,2.50
2018-05-25T12:04:49.239Z,2.23
2018-05-25T12:07:00.316Z,2.67
2018-05-25T12:09:11.451Z,2.97
2018-05-25T12:11:22.544Z,2.70
2018-05-25T12:13:33.718Z,2.60
2018-05-25T12:15:44.780Z,2.50
2018-05-25T12:17:55.919Z,2.50
2018-05-25T12:20:07.030Z,2.37
2018-05-25T12:22:18.116Z,2.57
2018-05-25T12:24:29.239Z,2.40
2018-05-25T12:26:40.330Z,2.20
2018-05-25T12:28:51.458Z,2.33
2018-05-25T12:31:02.581Z,2.17
2018-05-25T12:33:13.715Z,2.40
2018-05-25T12:35:24.902Z,2.20
2018-05-25T12:37:36.250Z,2.43
2018-05-25T12:39:47.329Z,2.33
2018-05-25T12:41:58.419Z,3.50
2018-05-25T12:44:09.506Z,3.20
2018-05-25T12:46:20.675Z,2.70
2018-05-25T12:48:31.827Z,2.97
2018-05-25T12:50:42.942Z,2.90
2018-05-25T12:52:54.059Z,2.90
2018-05-25T12:55:05.151Z,3.20
2018-05-25T12:57:16.346Z,2.77
2018-05-25T12:59:27.475Z,2.97
2018-05-25T13:01:38.584Z,2.80
2018-05-25T13:03:49.658Z,2.90
2018-05-25T13:06:00.737Z,2.60
2018-05-25T13:08:11.955Z,2.80
2018-05-25T13:10:23.128Z,2.80
2018-05-25T13:12:34.343Z,2.60
2018-05-25T13:14:45.544Z,2.50
2018-05-25T13:16:56.801Z,2.40
2018-05-25T13:19:07.895Z,2.27
2018-05-25T13:21:19.094Z,2.77
2018-05-25T13:23:30.331Z,2.60
2018-05-25T13:25:41.395Z,2.60
2018-05-25T13:27:52.518Z,2.10
2018-05-25T13:30:03.615Z,2.27
2018-05-25T13:32:14.714Z,2.40
2018-05-25T13:34:25.855Z,2.10
2018-05-25T13:36:36.981Z,2.40
2018-05-25T13:38:48.115Z,2.70
2018-05-25T13:40:59.256Z,2.43
2018-05-25T13:43:10.374Z,2.37
2018-05-25T13:45:21.521Z,2.20
2018-05-25T13:47:32.619Z,2.70
2018-05-25T13:49:43.711Z,2.43
2018-05-25T13:51:54.818Z,2.27
2018-05-25T13:54:06.010Z,3.17
2018-05-25T13:56:17.126Z,2.87
2018-05-25T13:58:28.256Z,3.10
2018-05-25T14:00:39.367Z,2.80
2018-05-25T14:02:50.543Z,2.93
2018-05-25T14:05:01.616Z,2.90
2018-05-25T14:07:12.703Z,3.17
2018-05-25T14:09:23.771Z,3.10
2018-05-25T14:11:34.798Z,3.10
2018-05-25T14:13:46.078Z,2.57
2018-05-25T14:15:57.141Z,3.03
2018-05-25T14:18:08.232Z,3.10
2018-05-25T14:20:19.414Z,3.03
2018-05-25T14:22:30.584Z,3.27
2018-05-25T14:24:41.598Z,3.10
2018-05-25T14:26:52.678Z,3.20
2018-05-25T14:29:03.811Z,3.20
2018-05-25T14:31:15.859Z,3.40
2018-05-25T14:33:26.947Z,3.50
2018-05-25T14:35:38.057Z,3.60
2018-05-25T14:37:49.171Z,3.07
2018-05-25T14:40:00.295Z,3.10
2018-05-25T14:42:11.442Z,3.00
2018-05-25T14:44:22.619Z,3.20
2018-05-25T14:46:33.797Z,3.33
2018-05-25T14:48:44.896Z,3.00
2018-05-25T14:50:55.994Z,2.80
2018-05-25T14:53:07.086Z,2.90
2018-05-25T14:55:18.311Z,3.10
2018-05-25T14:57:29.457Z,2.87
2018-05-25T14:59:40.550Z,2.80
2018-05-25T15:01:51.638Z,2.90
2018-05-25T15:04:02.815Z,3.00
2018-05-25T15:06:14.138Z,3.33
2018-05-25T15:08:25.239Z,3.23
2018-05-25T15:10:36.453Z,3.07
2018-05-25T15:12:47.630Z,3.00
2018-05-25T15:14:58.755Z,3.30
2018-05-25T15:17:09.902Z,3.23
2018-05-25T15:19:21.020Z,3.10
2018-05-25T15:21:32.148Z,2.93
2018-05-25T15:23:43.260Z,2.70
2018-05-25T15:25:54.386Z,3.00
2018-05-25T15:28:05.454Z,2.50
2018-05-25T15:30:16.583Z,2.80
2018-05-25T15:32:27.727Z,3.07
2018-05-25T15:34:38.826Z,3.10
2018-05-25T15:36:49.939Z,3.00
2018-05-25T15:39:01.012Z,2.70
2018-05-25T15:41:12.090Z,2.90
2018-05-25T15:43:23.193Z,3.10
2018-05-25T15:45:34.489Z,2.73
2018-05-25T15:47:45.702Z,2.60
2018-05-25T15:49:56.873Z,2.57
2018-05-25T15:52:07.946Z,2.60
2018-05-25T15:54:19.083Z,2.97
2018-05-25T15:56:30.176Z,2.80
2018-05-25T15:58:41.264Z,2.90
2018-05-25T16:00:52.363Z,2.90
2018-05-25T16:03:03.491Z,2.43
2018-05-25T16:05:14.750Z,2.30
2018-05-25T16:07:25.866Z,2.90
2018-05-25T16:09:36.994Z,3.03
2018-05-25T16:11:48.267Z,2.57
2018-05-25T16:13:59.350Z,2.60
2018-05-25T16:16:10.498Z,2.80
2018-05-25T16:18:21.618Z,2.73
2018-05-25T16:20:32.735Z,2.87
2018-05-25T16:22:43.810Z,2.50
2018-05-25T16:24:54.931Z,2.60
2018-05-25T16:27:06.136Z,2.97
2018-05-25T16:29:17.277Z,2.30
2018-05-25T16:31:28.582Z,2.80
2018-05-25T16:33:49.584Z,2.20
2018-05-25T16:36:00.875Z,2.53
2018-05-25T16:38:12.142Z,2.70
2018-05-25T16:40:23.544Z,2.50
2018-05-25T16:42:34.747Z,2.80
2018-05-25T16:44:45.868Z,2.70
2018-05-25T16:46:57.098Z,2.50
2018-05-25T16:49:08.515Z,2.63
2018-05-25T16:51:19.650Z,2.53
2018-05-25T16:53:30.905Z,2.60
2018-05-25T16:55:42.028Z,2.60
2018-05-25T16:57:53.139Z,2.33
2018-05-25T17:00:04.247Z,2.20
2018-05-25T17:02:15.411Z,2.60
2018-05-25T17:04:26.583Z,2.27
2018-05-25T17:06:38.487Z,2.33
2018-05-25T17:08:49.616Z,2.40
2018-05-25T17:11:00.739Z,2.70
2018-05-25T17:13:11.832Z,2.70
2018-05-25T17:15:24.264Z,2.30
2018-05-25T17:17:35.379Z,3.13
2018-05-25T17:19:46.446Z,3.50
2018-05-25T17:21:57.544Z,3.33
2018-05-25T17:24:08.652Z,3.17
2018-05-25T17:26:19.783Z,3.20
2018-05-25T17:28:30.905Z,3.57
2018-05-25T17:30:42.678Z,3.50
2018-05-25T17:32:53.765Z,3.50
2018-05-25T17:35:05.169Z,3.27
2018-05-25T17:37:16.345Z,3.33
2018-05-25T17:39:28.642Z,3.30
2018-05-25T17:41:39.767Z,3.63
2018-05-25T17:43:50.900Z,3.73
2018-05-25T17:46:02.028Z,3.30
2018-05-25T17:48:17.171Z,3.20
2018-05-25T17:50:28.421Z,3.40
2018-05-25T17:52:40.886Z,3.23
2018-05-25T17:54:52.028Z,2.90
2018-05-25T17:57:03.275Z,2.97
2018-05-25T17:59:14.403Z,3.10
2018-05-25T18:01:25.528Z,3.10
2018-05-25T18:03:37.984Z,3.37
2018-05-25T18:05:49.128Z,3.40
2018-05-25T18:08:00.272Z,2.93
2018-05-25T18:10:11.461Z,3.87
2018-05-25T18:12:22.660Z,3.17
2018-05-25T18:14:33.860Z,3.70
2018-05-25T18:16:44.999Z,3.10
2018-05-25T18:18:56.108Z,3.33
2018-05-25T18:21:07.236Z,2.97
2018-05-25T18:23:18.423Z,3.07
2018-05-25T18:25:29.562Z,3.53
2018-05-25T18:27:40.920Z,3.40
2018-05-25T18:29:52.023Z,3.50
2018-05-25T18:32:03.965Z,3.13
2018-05-25T18:34:15.143Z,3.20
2018-05-25T18:36:26.203Z,3.67
2018-05-25T18:38:37.363Z,3.00
2018-05-25T18:40:50.447Z,3.87
2018-05-25T18:43:01.759Z,4.10
2018-05-25T18:45:12.941Z,3.93
2018-05-25T18:47:24.098Z,3.80
2018-05-25T18:49:35.292Z,3.10
2018-05-25T18:51:46.442Z,3.60
2018-05-25T18:54:09.771Z,4.30
2018-05-25T18:56:21.100Z,4.23
2018-05-25T18:58:32.174Z,5.33
2018-05-25T19:00:43.347Z,3.67
2018-05-25T19:02:56.561Z,3.03
2018-05-25T19:05:07.964Z,3.07
2018-05-25T19:07:19.135Z,2.70
2018-05-25T19:09:30.289Z,2.67
2018-05-25T19:11:41.475Z,2.80
2018-05-25T19:13:52.625Z,3.00
2018-05-25T19:16:03.762Z,3.00
2018-05-25T19:18:14.938Z,2.97
2018-05-25T19:20:26.056Z,3.20
2018-05-25T19:22:37.250Z,3.33
2018-05-25T19:24:48.347Z,3.27
2018-05-25T19:26:59.495Z,3.23
2018-05-25T19:29:10.617Z,3.50
2018-05-25T19:31:21.731Z,3.40
2018-05-25T19:33:32.859Z,3.97
2018-05-25T19:35:43.967Z,3.77
2018-05-25T19:37:55.140Z,3.70
2018-05-25T19:40:06.267Z,4.03
2018-05-25T19:42:17.530Z,4.33
2018-05-25T19:44:28.693Z,4.17
2018-05-25T19:46:39.836Z,3.50
2018-05-25T19:48:51.007Z,4.10
2018-05-25T19:51:02.133Z,3.67
2018-05-25T19:53:13.264Z,2.60
2018-05-25T19:55:24.376Z,3.30
2018-05-25T19:57:35.604Z,2.77
2018-05-25T19:59:46.668Z,2.70
2018-05-25T20:01:57.962Z,3.40
2018-05-25T20:04:09.153Z,3.40
2018-05-25T20:06:20.246Z,3.60
2018-05-25T20:08:31.377Z,4.10
2018-05-25T20:10:42.447Z,2.80
2018-05-25T20:12:53.709Z,3.17
2018-05-25T20:15:04.827Z,3.30
2018-05-25T20:17:16.009Z,3.53
2018-05-25T20:19:27.094Z,2.93
2018-05-25T20:21:38.146Z,4.00
2018-05-25T20:23:49.325Z,3.70
2018-05-25T20:26:00.406Z,3.70
2018-05-25T20:28:11.550Z,3.50
2018-05-25T20:30:22.671Z,3.77
2018-05-25T20:32:33.803Z,3.57
2018-05-25T20:34:44.884Z,2.90
2018-05-25T20:36:55.963Z,3.13
2018-05-25T20:39:07.046Z,2.90
2018-05-25T20:41:18.164Z,2.33
2018-05-25T20:43:29.440Z,2.90
2018-05-25T20:45:40.551Z,3.07
2018-05-25T20:47:51.654Z,3.00
2018-05-25T20:50:02.720Z,2.77
2018-05-25T20:52:13.791Z,2.63
2018-05-25T20:54:24.886Z,3.03
2018-05-25T20:56:35.989Z,3.13
2018-05-25T20:58:47.102Z,2.70
2018-05-25T21:00:58.244Z,3.00
2018-05-25T21:03:09.390Z,2.80
2018-05-25T21:05:21.577Z,3.10
2018-05-25T21:07:32.693Z,3.17
2018-05-25T21:09:43.898Z,2.70
2018-05-25T21:11:54.989Z,3.30
2018-05-25T21:14:06.186Z,3.17
2018-05-25T21:16:17.315Z,3.33
2018-05-25T21:18:28.422Z,3.40
2018-05-25T21:20:41.303Z,2.57
2018-05-25T21:22:52.571Z,3.10
2018-05-25T21:25:03.753Z,3.30
2018-05-25T21:27:14.899Z,3.40
2018-05-25T21:29:26.024Z,3.30
2018-05-25T21:31:37.945Z,3.53
2018-05-25T21:33:49.094Z,3.70
2018-05-25T21:36:00.227Z,3.17
2018-05-25T21:38:11.360Z,3.23
2018-05-25T21:40:22.476Z,3.70
2018-05-25T21:42:33.866Z,3.73
2018-05-25T21:44:45.003Z,3.77
2018-05-25T21:46:56.297Z,3.43
2018-05-25T21:49:07.471Z,3.70
2018-05-25T21:51:18.616Z,3.40
2018-05-25T21:53:29.770Z,3.70
2018-05-25T21:55:40.911Z,3.30
2018-05-25T21:57:52.168Z,3.57
2018-05-25T22:00:03.347Z,3.30
2018-05-25T22:02:14.528Z,3.43
2018-05-25T22:04:25.706Z,3.77
2018-05-25T22:06:36.829Z,3.53
2018-05-25T22:08:47.956Z,4.03
2018-05-25T22:10:59.114Z,3.10
2018-05-25T22:13:10.316Z,3.70
2018-05-25T22:15:21.562Z,4.10
2018-05-25T22:17:32.711Z,4.27
2018-05-25T22:19:43.933Z,4.17
2018-05-25T22:21:55.057Z,3.97
2018-05-25T22:24:06.244Z,3.90
2018-05-25T22:26:17.385Z,4.50
2018-05-25T22:28:28.516Z,3.93
2018-05-25T22:30:39.691Z,3.43
2018-05-25T22:32:50.832Z,3.13
2018-05-25T22:35:02.050Z,4.20
2018-05-25T22:37:13.324Z,4.10
2018-05-25T22:39:24.647Z,3.60
2018-05-25T22:41:35.880Z,2.97
2018-05-25T22:43:58.993Z,4.40
2018-05-25T22:46:22.196Z,3.80
2018-05-25T22:48:45.450Z,3.93
2018-05-25T22:51:08.769Z,3.60
2018-05-25T22:53:25.703Z,3.77
2018-05-25T22:55:36.788Z,3.47
2018-05-25T22:57:48.058Z,3.90
2018-05-25T22:59:59.196Z,3.87
2018-05-25T23:02:10.345Z,4.03
2018-05-25T23:04:21.464Z,3.23
2018-05-25T23:06:32.593Z,3.27
2018-05-25T23:08:43.725Z,3.77
2018-05-25T23:10:54.889Z,3.30
2018-05-25T23:13:06.133Z,4.00
2018-05-25T23:15:17.241Z,4.30
2018-05-25T23:17:28.427Z,3.50
2018-05-25T23:19:39.684Z,4.07
2018-05-25T23:21:50.796Z,4.20
2018-05-25T23:24:01.921Z,4.30
2018-05-25T23:26:13.037Z,4.10
2018-05-25T23:28:24.147Z,4.93
2018-05-25T23:30:35.291Z,3.73
2018-05-25T23:32:46.457Z,3.67
2018-05-25T23:34:57.707Z,5.33
2018-05-25T23:37:08.839Z,4.60
2018-05-25T23:39:20.083Z,5.23
2018-05-25T23:41:31.207Z,4.60
2018-05-25T23:43:42.428Z,4.40
2018-05-25T23:45:53.632Z,4.20
2018-05-25T23:48:04.736Z,3.80
2018-05-25T23:50:15.884Z,4.50
2018-05-25T23:52:27.025Z,4.37
2018-05-25T23:54:38.196Z,3.83
2018-05-25T23:56:49.372Z,4.17
2018-05-25T23:59:00.559Z,4.83
